Hovedside
METAR-TAF:

METAR-TAF

Lufthavner :

Sandnessjøen, Norge

Sandnessjøen lufthavn

breddegrad: 65-58N, lengdegrad: 012-28E, høyde over havet: 1 m

Gjeldene værobservasjon

Denne rapporten ble laget for 22 minutter siden, klokken 20:20 UTC
Vind 3 kt fra skiftende retning
Temperatur 4°C
Luftfuktighet 81%
Trykk 1016 hPa
Sikt 10 km eller mer
Få skyer i en høyde av 1800 ft
Spredte skyer i en høyde av 2500 ft
Brutte skyer i en høyde av 4000 ft
regnbyger i nærheten

METAR: ENST 262020Z VRB03KT 9999 VCSH FEW018 SCT025 BKN040 04/01 Q1016 RMK WIND 300FT 29005KT

Tid: 22:42 (20:42 UTC)


TAF: fraværende

Værobservasjoner og værvarsel for over 4000 flyplasser (METAR- og TAF-rapporter).

Tilgjengelige stasjoner er representert av de røde og gule prikkene på kartet.

Hold musepekeren over prikken for å se navnet på stasjonen.

Klikk så for å se værobservasjoner og -varsler.

For å forandre kartet kan du klikke på den grønne knappen med svart kryss for å zoome inn, på den grønne knappen med strek for å zoome ut, eller på de grønne pilene for å se tilstøtende kart.


METAR-TAF: